createdAt,value
2018-07-13T00:01:33.587Z,16.76
2018-07-13T00:04:02.494Z,16.81
2018-07-13T00:06:31.324Z,16.91
2018-07-13T00:09:00.255Z,16.79
2018-07-13T00:11:29.067Z,16.71
2018-07-13T00:14:15.452Z,16.70
2018-07-13T00:16:45.128Z,16.81
2018-07-13T00:19:14.778Z,16.86
2018-07-13T00:21:43.650Z,16.85
2018-07-13T00:24:12.592Z,16.93
2018-07-13T00:26:41.504Z,16.89
2018-07-13T00:29:10.761Z,16.73
2018-07-13T00:31:40.728Z,16.79
2018-07-13T00:34:09.580Z,16.91
2018-07-13T00:36:38.498Z,16.84
2018-07-13T00:39:11.414Z,16.74
2018-07-13T00:41:40.336Z,16.60
2018-07-13T00:44:09.285Z,16.73
2018-07-13T00:46:38.135Z,16.52
2018-07-13T00:49:06.966Z,16.67
2018-07-13T00:51:35.865Z,16.68
2018-07-13T00:54:04.801Z,16.74
2018-07-13T00:56:33.693Z,16.77
2018-07-13T00:59:02.594Z,16.82
2018-07-13T01:01:31.419Z,16.78
2018-07-13T01:04:00.235Z,16.77
2018-07-13T01:06:29.023Z,16.65
2018-07-13T01:08:57.661Z,16.64
2018-07-13T01:11:26.520Z,16.47
2018-07-13T01:13:55.314Z,16.44
2018-07-13T01:16:24.455Z,16.46
2018-07-13T01:18:53.355Z,16.48
2018-07-13T01:21:22.187Z,16.42
2018-07-13T01:23:50.813Z,16.39
2018-07-13T01:26:19.653Z,16.38
2018-07-13T01:28:48.273Z,16.40
2018-07-13T01:31:17.043Z,16.50
2018-07-13T01:33:45.802Z,16.59
2018-07-13T01:36:14.560Z,16.51
2018-07-13T01:38:43.435Z,16.69
2018-07-13T01:41:12.472Z,16.59
2018-07-13T01:43:41.382Z,16.57
2018-07-13T01:46:10.004Z,16.61
2018-07-13T01:48:38.860Z,16.70
2018-07-13T01:51:07.530Z,16.60
2018-07-13T01:53:36.382Z,16.56
2018-07-13T01:56:05.363Z,16.58
2018-07-13T01:58:34.214Z,16.38
2018-07-13T02:01:04.127Z,16.40
2018-07-13T02:03:56.240Z,16.38
2018-07-13T02:06:25.089Z,16.40
2018-07-13T02:08:53.921Z,16.52
2018-07-13T02:11:22.702Z,16.63
2018-07-13T02:13:51.990Z,16.49
2018-07-13T02:16:20.816Z,16.55
2018-07-13T02:18:49.728Z,16.43
2018-07-13T02:21:18.921Z,16.37
2018-07-13T02:23:47.765Z,16.43
2018-07-13T02:26:16.566Z,16.49
2018-07-13T02:28:45.388Z,16.53
2018-07-13T02:31:14.255Z,16.63
2018-07-13T02:33:43.130Z,16.61
2018-07-13T02:36:11.889Z,16.49
2018-07-13T02:38:41.011Z,16.51
2018-07-13T02:41:09.860Z,16.56
2018-07-13T02:43:38.691Z,16.42
2018-07-13T02:46:07.561Z,16.53
2018-07-13T02:48:36.174Z,16.44
2018-07-13T02:51:05.132Z,16.51
2018-07-13T02:53:33.838Z,16.55
2018-07-13T02:56:02.731Z,16.56
2018-07-13T02:58:31.534Z,16.62
2018-07-13T03:01:00.424Z,16.54
2018-07-13T03:03:29.251Z,16.41
2018-07-13T03:05:58.116Z,16.46
2018-07-13T03:08:26.983Z,16.41
2018-07-13T03:10:55.813Z,16.35
2018-07-13T03:13:24.843Z,16.41
2018-07-13T03:15:53.499Z,16.46
2018-07-13T03:18:22.287Z,16.42
2018-07-13T03:20:51.183Z,16.41
2018-07-13T03:23:19.973Z,16.33
2018-07-13T03:25:48.847Z,16.52
2018-07-13T03:28:17.657Z,16.44
2018-07-13T03:30:46.504Z,16.22
2018-07-13T03:33:15.352Z,16.47
2018-07-13T03:35:44.147Z,16.40
2018-07-13T03:38:12.975Z,16.38
2018-07-13T03:40:41.805Z,16.52
2018-07-13T03:43:10.648Z,16.33
2018-07-13T03:45:45.628Z,16.49
2018-07-13T03:48:14.483Z,16.45
2018-07-13T03:50:43.275Z,16.53
2018-07-13T03:53:12.232Z,16.61
2018-07-13T03:55:41.108Z,16.31
2018-07-13T03:58:10.024Z,16.24
2018-07-13T04:00:38.733Z,16.41
2018-07-13T04:03:07.426Z,16.43
2018-07-13T04:05:36.242Z,16.50
2018-07-13T04:08:05.129Z,16.49
2018-07-13T04:10:33.939Z,16.54
2018-07-13T04:13:02.809Z,16.54
2018-07-13T04:15:31.691Z,16.36
2018-07-13T04:18:00.584Z,16.46
2018-07-13T04:20:29.555Z,16.54
2018-07-13T04:22:58.354Z,16.55
2018-07-13T04:25:27.352Z,16.54
2018-07-13T04:27:56.398Z,16.54
2018-07-13T04:30:25.348Z,16.50
2018-07-13T04:32:54.251Z,16.40
2018-07-13T04:35:23.057Z,16.58
2018-07-13T04:37:51.963Z,16.55
2018-07-13T04:40:20.821Z,16.51
2018-07-13T04:42:49.637Z,16.56
2018-07-13T04:45:24.964Z,16.55
2018-07-13T04:47:53.975Z,16.68
2018-07-13T04:50:22.928Z,16.53
2018-07-13T04:52:52.392Z,16.49
2018-07-13T04:55:21.572Z,16.57
2018-07-13T04:57:50.597Z,16.61
2018-07-13T05:00:19.726Z,16.42
2018-07-13T05:02:48.991Z,16.47
2018-07-13T05:05:18.037Z,16.53
2018-07-13T05:07:46.856Z,16.30
2018-07-13T05:10:15.875Z,16.56
2018-07-13T05:12:44.703Z,16.38
2018-07-13T05:15:13.703Z,16.31
2018-07-13T05:17:42.599Z,16.39
2018-07-13T05:20:11.578Z,16.41
2018-07-13T05:22:40.567Z,16.22
2018-07-13T05:25:09.619Z,16.58
2018-07-13T05:27:38.771Z,16.64
2018-07-13T05:30:08.158Z,16.49
2018-07-13T05:32:37.248Z,16.76
2018-07-13T05:35:06.015Z,16.76
2018-07-13T05:37:34.979Z,16.79
2018-07-13T05:40:04.605Z,16.73
2018-07-13T05:42:33.836Z,16.76
2018-07-13T05:45:02.980Z,16.67
2018-07-13T05:47:32.028Z,16.74
2018-07-13T05:50:01.088Z,16.83
2018-07-13T05:52:30.141Z,16.83
2018-07-13T05:54:59.568Z,16.88
2018-07-13T05:57:28.653Z,16.96
2018-07-13T05:59:57.650Z,16.84
2018-07-13T06:02:26.664Z,17.02
2018-07-13T06:04:55.697Z,17.04
2018-07-13T06:07:24.846Z,16.81
2018-07-13T06:09:53.857Z,17.03
2018-07-13T06:12:22.891Z,16.90
2018-07-13T06:14:51.712Z,17.03
2018-07-13T06:17:20.540Z,17.01
2018-07-13T06:19:49.395Z,17.10
2018-07-13T06:22:18.291Z,16.93
2018-07-13T06:24:47.084Z,17.05
2018-07-13T06:27:15.892Z,16.82
2018-07-13T06:29:44.784Z,17.02
2018-07-13T06:32:13.602Z,16.99
2018-07-13T06:34:42.553Z,16.74
2018-07-13T06:37:11.587Z,16.94
2018-07-13T06:39:40.643Z,16.74
2018-07-13T06:42:09.566Z,16.94
2018-07-13T06:44:38.646Z,17.05
2018-07-13T06:47:07.374Z,17.08
2018-07-13T06:49:36.260Z,17.08
2018-07-13T06:52:05.573Z,17.03
2018-07-13T06:54:34.516Z,16.94
2018-07-13T06:57:03.365Z,17.01
2018-07-13T06:59:32.296Z,17.08
2018-07-13T07:02:01.493Z,16.73
2018-07-13T07:04:32.520Z,17.02
2018-07-13T07:07:08.491Z,17.03
2018-07-13T07:09:38.199Z,17.01
2018-07-13T07:12:49.672Z,17.08
2018-07-13T07:15:18.526Z,17.03
2018-07-13T07:17:47.645Z,16.85
2018-07-13T07:20:16.776Z,17.11
2018-07-13T07:22:46.145Z,17.25
2018-07-13T07:25:15.127Z,17.22
2018-07-13T07:27:44.465Z,17.26
2018-07-13T07:30:13.770Z,17.33
2018-07-13T07:32:43.331Z,17.26
2018-07-13T07:35:12.159Z,17.26
2018-07-13T07:37:41.220Z,17.21
2018-07-13T07:40:10.447Z,17.24
2018-07-13T07:42:39.219Z,17.01
2018-07-13T07:45:08.221Z,17.32
2018-07-13T07:47:37.123Z,17.39
2018-07-13T07:50:05.976Z,17.30
2018-07-13T07:52:34.812Z,17.29
2018-07-13T07:55:03.595Z,17.13
2018-07-13T07:57:32.620Z,17.47
2018-07-13T08:00:01.475Z,17.55
2018-07-13T08:02:30.307Z,17.18
2018-07-13T08:04:59.100Z,17.45
2018-07-13T08:07:27.989Z,17.50
2018-07-13T08:09:56.772Z,17.54
2018-07-13T08:12:25.622Z,17.61
2018-07-13T08:14:54.493Z,17.56
2018-07-13T08:17:23.680Z,17.74
2018-07-13T08:19:52.631Z,17.82
2018-07-13T08:22:34.351Z,17.84
2018-07-13T08:25:06.501Z,17.84
2018-07-13T08:27:39.456Z,17.66
2018-07-13T08:30:50.477Z,17.81
2018-07-13T08:33:19.394Z,17.80
2018-07-13T08:35:48.180Z,17.84
2018-07-13T08:38:17.004Z,17.87
2018-07-13T08:40:45.968Z,17.79
2018-07-13T08:43:14.896Z,17.76
2018-07-13T08:45:49.889Z,18.03
2018-07-13T08:48:18.814Z,17.96
2018-07-13T08:50:47.824Z,17.98
2018-07-13T08:53:17.016Z,17.97
2018-07-13T08:55:46.114Z,18.30
2018-07-13T08:58:16.833Z,18.45
2018-07-13T09:00:45.823Z,18.25
2018-07-13T09:03:14.696Z,18.33
2018-07-13T09:05:43.712Z,18.25
2018-07-13T09:08:12.596Z,18.26
2018-07-13T09:10:41.614Z,18.63
2018-07-13T09:13:10.468Z,18.10
2018-07-13T09:15:39.371Z,18.53
2018-07-13T09:18:08.251Z,18.50
2018-07-13T09:20:37.249Z,18.19
2018-07-13T09:23:06.201Z,18.27
2018-07-13T09:25:34.918Z,18.65
2018-07-13T09:28:03.731Z,18.60
2018-07-13T09:30:32.659Z,18.51
2018-07-13T09:33:01.666Z,18.84
2018-07-13T09:35:30.572Z,18.98
2018-07-13T09:37:59.467Z,18.72
2018-07-13T09:40:28.428Z,19.19
2018-07-13T09:42:59.015Z,19.24
2018-07-13T09:45:33.935Z,19.16
2018-07-13T09:48:03.126Z,19.31
2018-07-13T09:50:32.375Z,19.48
2018-07-13T09:53:01.324Z,19.39
2018-07-13T09:55:30.398Z,19.20
2018-07-13T09:57:59.064Z,19.12
2018-07-13T10:00:33.628Z,19.15
2018-07-13T10:03:02.516Z,19.39
2018-07-13T10:05:31.433Z,19.32
2018-07-13T10:08:00.413Z,19.83
2018-07-13T10:10:29.611Z,19.66
2018-07-13T10:12:58.510Z,19.57
2018-07-13T10:15:27.348Z,19.56
2018-07-13T10:17:56.268Z,19.56
2018-07-13T10:20:25.061Z,19.65
2018-07-13T10:22:54.115Z,19.21
2018-07-13T10:25:26.417Z,19.40
2018-07-13T10:27:55.643Z,19.82
2018-07-13T10:30:24.471Z,20.40
2018-07-13T10:32:53.493Z,20.47
2018-07-13T10:35:22.490Z,20.63
2018-07-13T10:37:51.716Z,20.14
2018-07-13T10:40:20.593Z,20.34
2018-07-13T10:42:49.500Z,21.07
2018-07-13T10:45:18.304Z,20.86
2018-07-13T10:47:47.201Z,20.74
2018-07-13T10:50:15.956Z,20.69
2018-07-13T10:52:44.724Z,20.74
2018-07-13T10:55:13.635Z,20.84
2018-07-13T10:57:42.419Z,21.47
2018-07-13T11:00:11.252Z,21.57
2018-07-13T11:02:40.059Z,21.82
2018-07-13T11:05:08.935Z,22.15
2018-07-13T11:07:37.915Z,22.55
2018-07-13T11:10:06.847Z,22.18
2018-07-13T11:12:35.629Z,21.93
2018-07-13T11:15:04.702Z,21.42
2018-07-13T11:17:33.472Z,22.24
2018-07-13T11:20:02.374Z,22.21
2018-07-13T11:22:31.206Z,22.23
2018-07-13T11:25:00.047Z,22.18
2018-07-13T11:27:28.861Z,22.62
2018-07-13T11:29:57.675Z,22.81
2018-07-13T11:32:26.329Z,23.44
2018-07-13T11:34:55.161Z,23.29
2018-07-13T11:37:24.021Z,22.70
2018-07-13T11:39:52.780Z,22.26
2018-07-13T11:42:21.502Z,22.46
2018-07-13T11:44:50.327Z,22.38
2018-07-13T11:47:19.480Z,22.51
2018-07-13T11:49:48.272Z,22.28
2018-07-13T11:52:17.182Z,22.32
2018-07-13T11:54:45.910Z,22.13
2018-07-13T11:57:14.821Z,22.03
2018-07-13T11:59:43.611Z,21.81
2018-07-13T12:02:12.271Z,22.04
2018-07-13T12:04:41.046Z,21.98
2018-07-13T12:07:09.867Z,22.19
2018-07-13T12:09:38.705Z,22.17
2018-07-13T12:12:07.827Z,22.52
2018-07-13T12:14:36.643Z,22.37
2018-07-13T12:17:05.585Z,22.46
2018-07-13T12:19:34.367Z,22.47
2018-07-13T12:22:03.119Z,22.38
2018-07-13T12:24:31.742Z,22.34
2018-07-13T12:27:00.622Z,22.20
2018-07-13T12:29:29.440Z,22.63
2018-07-13T12:31:58.221Z,22.27
2018-07-13T12:34:26.933Z,21.97
2018-07-13T12:36:55.726Z,22.07
2018-07-13T12:39:24.545Z,22.32
2018-07-13T12:41:53.158Z,22.54
2018-07-13T12:44:22.016Z,22.39
2018-07-13T12:46:50.875Z,22.62
2018-07-13T12:49:19.709Z,22.64
2018-07-13T12:51:48.323Z,22.00
2018-07-13T12:54:17.250Z,22.04
2018-07-13T12:56:46.029Z,21.98
2018-07-13T12:59:15.028Z,22.22
2018-07-13T13:01:43.904Z,21.79
2018-07-13T13:04:12.744Z,21.82
2018-07-13T13:06:41.531Z,21.75
2018-07-13T13:09:10.345Z,21.90
2018-07-13T13:11:39.203Z,22.15
2018-07-13T13:14:08.080Z,22.08
2018-07-13T13:16:36.877Z,22.56
2018-07-13T13:19:05.773Z,22.58
2018-07-13T13:21:34.598Z,22.31
2018-07-13T13:24:03.489Z,22.54
2018-07-13T13:26:32.299Z,22.15
2018-07-13T13:29:01.085Z,21.99
2018-07-13T13:31:30.178Z,22.09
2018-07-13T13:33:58.968Z,22.15
2018-07-13T13:36:27.828Z,21.57
2018-07-13T13:38:56.632Z,21.88
2018-07-13T13:41:25.277Z,21.61
2018-07-13T13:43:54.487Z,21.42
2018-07-13T13:46:23.348Z,21.08
2018-07-13T13:48:52.040Z,21.46
2018-07-13T13:51:20.883Z,21.44
2018-07-13T13:53:49.556Z,21.22
2018-07-13T13:56:18.397Z,21.37
2018-07-13T13:58:47.204Z,21.78
2018-07-13T14:01:15.884Z,21.50
2018-07-13T14:03:44.643Z,21.89
2018-07-13T14:06:13.491Z,21.70
2018-07-13T14:08:42.286Z,21.38
2018-07-13T14:11:11.095Z,21.56
2018-07-13T14:13:39.931Z,21.20
2018-07-13T14:16:08.743Z,21.18
2018-07-13T14:18:37.518Z,20.99
2018-07-13T14:21:06.925Z,20.88
2018-07-13T14:23:35.685Z,21.04
2018-07-13T14:26:04.847Z,21.18
2018-07-13T14:28:33.716Z,20.86
2018-07-13T14:31:02.507Z,21.18
2018-07-13T14:33:31.391Z,21.52
2018-07-13T14:36:00.165Z,21.31
2018-07-13T14:38:29.060Z,21.06
2018-07-13T14:40:57.864Z,21.28
2018-07-13T14:43:26.780Z,21.23
2018-07-13T14:45:57.162Z,21.30
2018-07-13T14:48:26.005Z,20.72
2018-07-13T14:50:54.997Z,20.96
2018-07-13T14:53:23.978Z,20.90
2018-07-13T14:55:52.852Z,20.99
2018-07-13T14:58:21.716Z,21.07
2018-07-13T15:00:50.491Z,20.89
2018-07-13T15:03:19.407Z,21.40
2018-07-13T15:05:48.290Z,21.03
2018-07-13T15:08:17.050Z,20.75
2018-07-13T15:10:45.728Z,20.85
2018-07-13T15:13:14.580Z,21.03
2018-07-13T15:15:43.458Z,20.99
2018-07-13T15:18:12.321Z,20.70
2018-07-13T15:20:41.161Z,20.46
2018-07-13T15:23:10.000Z,20.45
2018-07-13T15:25:38.899Z,20.63
2018-07-13T15:28:07.786Z,20.41
2018-07-13T15:30:36.939Z,20.53
2018-07-13T15:33:05.785Z,20.59
2018-07-13T15:35:34.644Z,20.69
2018-07-13T15:38:03.465Z,20.70
2018-07-13T15:40:32.371Z,20.76
2018-07-13T15:43:01.133Z,20.84
2018-07-13T15:45:36.026Z,20.85
2018-07-13T15:48:04.836Z,20.95
2018-07-13T15:50:33.760Z,20.56
2018-07-13T15:53:02.538Z,20.51
2018-07-13T15:55:36.862Z,20.38
2018-07-13T15:58:05.746Z,20.37
2018-07-13T16:00:34.648Z,20.41
2018-07-13T16:03:03.461Z,20.59
2018-07-13T16:05:32.336Z,20.83
2018-07-13T16:08:01.063Z,20.35
2018-07-13T16:10:29.931Z,20.42
2018-07-13T16:12:58.799Z,20.06
2018-07-13T16:15:28.001Z,20.22
2018-07-13T16:17:56.621Z,20.28
2018-07-13T16:20:25.462Z,20.18
2018-07-13T16:22:54.198Z,20.40
2018-07-13T16:25:23.168Z,20.36
2018-07-13T16:27:51.985Z,20.51
2018-07-13T16:30:20.813Z,20.12
2018-07-13T16:32:49.653Z,20.00
2018-07-13T16:35:18.432Z,20.06
2018-07-13T16:37:47.162Z,20.05
2018-07-13T16:40:15.980Z,19.94
2018-07-13T16:42:44.800Z,19.92
2018-07-13T16:45:13.712Z,19.77
2018-07-13T16:47:42.454Z,20.11
2018-07-13T16:50:11.339Z,19.84
2018-07-13T16:52:40.172Z,19.75
2018-07-13T16:55:09.053Z,20.00
2018-07-13T16:57:37.865Z,19.95
2018-07-13T17:00:06.736Z,19.56
2018-07-13T17:02:35.649Z,19.33
2018-07-13T17:05:04.525Z,19.40
2018-07-13T17:07:33.391Z,19.32
2018-07-13T17:10:02.303Z,19.35
2018-07-13T17:12:31.151Z,19.31
2018-07-13T17:15:00.025Z,19.48
2018-07-13T17:17:28.928Z,19.48
2018-07-13T17:19:57.682Z,19.20
2018-07-13T17:22:26.467Z,19.09
2018-07-13T17:24:55.293Z,19.07
2018-07-13T17:27:24.408Z,19.12
2018-07-13T17:29:53.334Z,19.02
2018-07-13T17:32:22.090Z,18.93
2018-07-13T17:34:51.211Z,18.88
2018-07-13T17:37:20.267Z,19.09
2018-07-13T17:39:49.138Z,19.02
2018-07-13T17:42:17.923Z,19.04
2018-07-13T17:44:46.756Z,19.00
2018-07-13T17:47:16.344Z,18.67
2018-07-13T17:49:45.261Z,18.93
2018-07-13T17:52:16.811Z,18.75
2018-07-13T17:54:46.027Z,18.71
2018-07-13T17:57:15.008Z,18.83
2018-07-13T17:59:43.827Z,18.96
2018-07-13T18:02:12.635Z,18.67
2018-07-13T18:04:41.357Z,18.68
2018-07-13T18:07:10.184Z,18.48
2018-07-13T18:09:38.826Z,18.38
2018-07-13T18:12:07.671Z,18.45
2018-07-13T18:14:37.160Z,18.48
2018-07-13T18:17:06.092Z,18.34
2018-07-13T18:19:35.584Z,18.28
2018-07-13T18:22:04.434Z,18.16
2018-07-13T18:24:33.212Z,18.13
2018-07-13T18:27:02.695Z,18.03
2018-07-13T18:29:31.351Z,18.00
2018-07-13T18:32:00.537Z,17.98
2018-07-13T18:34:29.429Z,17.94
2018-07-13T18:36:59.044Z,17.80
2018-07-13T18:39:27.677Z,17.69
2018-07-13T18:41:56.435Z,17.64
2018-07-13T18:44:25.274Z,17.54
2018-07-13T18:46:54.035Z,17.63
2018-07-13T18:49:22.794Z,17.62
2018-07-13T18:51:51.618Z,17.59
2018-07-13T18:54:20.334Z,17.33
2018-07-13T18:56:49.227Z,17.38
2018-07-13T18:59:17.986Z,17.36
2018-07-13T19:01:46.812Z,17.20
2018-07-13T19:04:15.570Z,17.28
2018-07-13T19:06:44.417Z,17.19
2018-07-13T19:09:13.470Z,17.12
2018-07-13T19:11:43.146Z,17.02
2018-07-13T19:14:11.952Z,16.95
2018-07-13T19:16:40.952Z,16.94
2018-07-13T19:19:10.059Z,16.94
2018-07-13T19:21:39.391Z,16.89
2018-07-13T19:24:08.143Z,16.83
2018-07-13T19:26:36.963Z,16.88
2018-07-13T19:29:06.067Z,16.95
2018-07-13T19:31:35.008Z,17.03
2018-07-13T19:34:04.320Z,17.03
2018-07-13T19:36:33.275Z,16.98
2018-07-13T19:39:01.922Z,17.14
2018-07-13T19:41:30.962Z,16.87
2018-07-13T19:43:59.962Z,17.10
2018-07-13T19:46:28.790Z,17.01
2018-07-13T19:48:57.613Z,16.96
2018-07-13T19:51:26.397Z,16.83
2018-07-13T19:53:56.392Z,16.81
2018-07-13T19:56:25.270Z,16.84
2018-07-13T19:58:54.072Z,16.83
2018-07-13T20:01:22.866Z,16.73
2018-07-13T20:03:51.546Z,16.81
2018-07-13T20:06:20.369Z,16.86
2018-07-13T20:08:49.265Z,16.85
2018-07-13T20:11:18.101Z,16.82
2018-07-13T20:13:47.146Z,16.92
2018-07-13T20:16:16.113Z,16.89
2018-07-13T20:18:44.941Z,16.91
2018-07-13T20:21:13.816Z,16.90
2018-07-13T20:23:42.719Z,16.84
2018-07-13T20:26:11.524Z,16.87
2018-07-13T20:28:40.384Z,16.90
2018-07-13T20:31:09.168Z,16.97
2018-07-13T20:33:37.982Z,16.86
2018-07-13T20:36:06.904Z,16.80
2018-07-13T20:38:35.676Z,16.85
2018-07-13T20:41:04.313Z,16.88
2018-07-13T20:43:33.111Z,16.99
2018-07-13T20:46:02.011Z,16.85
2018-07-13T20:48:30.808Z,16.82
2018-07-13T20:50:59.619Z,16.82
2018-07-13T20:53:28.247Z,16.96
2018-07-13T20:55:57.160Z,16.91
2018-07-13T20:58:26.824Z,16.86
2018-07-13T21:00:55.637Z,16.70
2018-07-13T21:03:24.401Z,16.81
2018-07-13T21:05:53.276Z,16.78
2018-07-13T21:08:22.073Z,16.72
2018-07-13T21:10:50.976Z,16.76
2018-07-13T21:13:19.792Z,16.76
2018-07-13T21:15:48.669Z,16.83
2018-07-13T21:18:17.431Z,16.55
2018-07-13T21:20:46.136Z,16.64
2018-07-13T21:23:15.000Z,16.53
2018-07-13T21:25:43.612Z,16.49
2018-07-13T21:28:12.431Z,16.58
2018-07-13T21:30:41.213Z,16.46
2018-07-13T21:33:10.060Z,16.63
2018-07-13T21:35:38.937Z,16.45
2018-07-13T21:38:07.776Z,16.59
2018-07-13T21:40:36.555Z,16.68
2018-07-13T21:43:05.436Z,16.56
2018-07-13T21:45:40.588Z,16.63
2018-07-13T21:48:09.472Z,16.66
2018-07-13T21:50:38.255Z,16.67
2018-07-13T21:53:07.002Z,16.69
2018-07-13T21:55:35.815Z,16.44
2018-07-13T21:58:04.897Z,16.54
2018-07-13T22:00:33.732Z,16.62
2018-07-13T22:03:02.641Z,16.62
2018-07-13T22:05:31.404Z,16.38
2018-07-13T22:08:00.279Z,16.47
2018-07-13T22:10:29.135Z,16.32
2018-07-13T22:12:58.090Z,16.45
2018-07-13T22:15:26.928Z,16.43
2018-07-13T22:17:55.720Z,16.53
2018-07-13T22:20:24.559Z,16.16
2018-07-13T22:22:53.338Z,16.02
2018-07-13T22:25:22.364Z,16.24
2018-07-13T22:27:51.130Z,16.29
2018-07-13T22:30:19.967Z,16.35
2018-07-13T22:32:48.770Z,16.24
2018-07-13T22:35:17.635Z,16.35
2018-07-13T22:37:46.311Z,16.21
2018-07-13T22:40:15.139Z,16.32
2018-07-13T22:42:43.952Z,16.11
2018-07-13T22:45:12.651Z,16.24
2018-07-13T22:47:41.388Z,16.31
2018-07-13T22:50:10.277Z,16.35
2018-07-13T22:52:39.065Z,16.30
2018-07-13T22:55:08.265Z,16.23
2018-07-13T22:57:37.021Z,16.32
2018-07-13T23:00:06.496Z,16.19
2018-07-13T23:02:35.360Z,15.97
2018-07-13T23:05:04.516Z,16.19
2018-07-13T23:07:33.279Z,16.12
2018-07-13T23:10:02.078Z,16.10
2018-07-13T23:12:30.892Z,16.26
2018-07-13T23:14:59.764Z,16.14
2018-07-13T23:17:28.415Z,16.28
2018-07-13T23:19:57.282Z,16.34
2018-07-13T23:22:26.080Z,16.30
2018-07-13T23:24:54.905Z,16.07
2018-07-13T23:27:23.969Z,16.11
2018-07-13T23:29:52.767Z,16.06
2018-07-13T23:32:21.598Z,15.87
2018-07-13T23:34:50.218Z,16.15
2018-07-13T23:37:19.069Z,16.08
2018-07-13T23:39:47.944Z,16.00
2018-07-13T23:42:16.837Z,16.16
2018-07-13T23:44:45.625Z,16.24
2018-07-13T23:47:14.450Z,16.15
2018-07-13T23:49:43.203Z,16.16
2018-07-13T23:52:12.133Z,16.18
2018-07-13T23:54:41.339Z,16.23
2018-07-13T23:57:10.188Z,16.01
2018-07-13T23:59:39.274Z,15.90
